createdAt,value
2023-04-07T00:00:06.759Z,9.20
2023-04-07T00:02:36.877Z,9.30
2023-04-07T00:05:03.755Z,9.20
2023-04-07T00:07:30.449Z,9.20
2023-04-07T00:09:57.135Z,9.20
2023-04-07T00:12:23.769Z,9.20
2023-04-07T00:14:55.448Z,9.10
2023-04-07T00:17:24.262Z,9.20
2023-04-07T00:19:51.107Z,9.20
2023-04-07T00:22:18.159Z,9.10
2023-04-07T00:24:47.105Z,9.30
2023-04-07T00:27:13.862Z,9.10
2023-04-07T00:29:40.931Z,9.10
2023-04-07T00:32:09.951Z,9.10
2023-04-07T00:34:36.566Z,9.20
2023-04-07T00:37:03.249Z,9.10
2023-04-07T00:39:30.337Z,9.00
2023-04-07T00:44:24.614Z,9.10
2023-04-07T00:46:51.329Z,9.00
2023-04-07T00:49:18.089Z,8.80
2023-04-07T00:51:50.633Z,9.00
2023-04-07T00:54:18.709Z,9.00
2023-04-07T00:56:45.466Z,8.90
2023-04-07T00:59:12.355Z,9.00
2023-04-07T01:01:47.276Z,9.00
2023-04-07T01:04:27.994Z,8.90
2023-04-07T01:07:01.608Z,8.90
2023-04-07T01:09:47.663Z,8.90
2023-04-07T01:12:39.932Z,8.90
2023-04-07T01:15:11.240Z,8.90
2023-04-07T01:17:45.519Z,8.90
2023-04-07T01:20:19.532Z,8.90
2023-04-07T01:22:54.245Z,8.90
2023-04-07T01:25:44.426Z,8.90
2023-04-07T01:28:37.126Z,8.90
2023-04-07T01:31:05.647Z,8.80
2023-04-07T01:33:36.713Z,8.80
2023-04-07T01:36:06.647Z,8.80
2023-04-07T01:38:37.122Z,8.80
2023-04-07T01:41:05.392Z,8.70
2023-04-07T01:43:33.333Z,8.80
2023-04-07T01:46:01.237Z,8.70
2023-04-07T01:48:28.532Z,8.70
2023-04-07T01:50:56.662Z,8.70
2023-04-07T01:53:23.695Z,8.70
2023-04-07T01:55:54.887Z,8.70
2023-04-07T01:58:21.624Z,8.70
2023-04-07T02:00:51.386Z,8.80
2023-04-07T02:03:30.151Z,8.80
2023-04-07T02:06:01.940Z,8.80
2023-04-07T02:08:31.189Z,8.80
2023-04-07T02:11:01.248Z,8.70
2023-04-07T02:13:30.033Z,8.70
2023-04-07T02:15:57.986Z,8.70
2023-04-07T02:18:27.733Z,8.70
2023-04-07T02:20:56.364Z,8.70
2023-04-07T02:23:25.368Z,8.70
2023-04-07T02:25:54.211Z,8.70
2023-04-07T02:28:23.627Z,8.70
2023-04-07T02:30:50.327Z,8.60
2023-04-07T02:33:17.140Z,8.70
2023-04-07T02:35:48.451Z,8.70
2023-04-07T02:38:15.509Z,8.60
2023-04-07T02:40:44.387Z,8.60
2023-04-07T02:43:11.465Z,8.60
2023-04-07T02:45:38.174Z,8.50
2023-04-07T02:48:05.148Z,8.50
2023-04-07T02:50:31.856Z,8.50
2023-04-07T02:53:03.185Z,8.50
2023-04-07T02:55:29.899Z,8.60
2023-04-07T02:57:59.093Z,8.50
2023-04-07T03:00:26.372Z,8.60
2023-04-07T03:02:53.161Z,8.50
2023-04-07T03:05:22.775Z,8.50
2023-04-07T03:07:49.478Z,8.50
2023-04-07T03:10:16.306Z,8.50
2023-04-07T03:12:47.346Z,8.50
2023-04-07T03:15:14.018Z,8.40
2023-04-07T03:17:43.087Z,8.50
2023-04-07T03:20:10.131Z,8.50
2023-04-07T03:22:36.872Z,8.50
2023-04-07T03:25:06.046Z,8.50
2023-04-07T03:27:32.777Z,8.40
2023-04-07T03:29:59.436Z,8.50
2023-04-07T03:32:26.162Z,8.50
2023-04-07T03:34:52.802Z,8.40
2023-04-07T03:37:26.716Z,8.40
2023-04-07T03:39:53.386Z,8.40
2023-04-07T03:42:22.580Z,8.40
2023-04-07T03:44:49.230Z,8.40
2023-04-07T03:47:18.417Z,8.40
2023-04-07T03:49:45.075Z,8.40
2023-04-07T03:54:41.644Z,8.40
2023-04-07T03:59:38.300Z,8.30
2023-04-07T04:02:05.076Z,8.30
2023-04-07T04:04:31.812Z,8.30
2023-04-07T04:07:01.595Z,8.30
2023-04-07T04:09:28.321Z,8.30
2023-04-07T04:14:24.438Z,8.30
2023-04-07T04:16:51.218Z,8.30
2023-04-07T04:19:22.928Z,8.30
2023-04-07T04:21:49.717Z,8.20
2023-04-07T04:24:18.881Z,8.20
2023-04-07T04:26:45.577Z,8.30
2023-04-07T04:29:14.678Z,8.20
2023-04-07T04:31:41.344Z,8.20
2023-04-07T04:34:08.099Z,8.20
2023-04-07T04:36:36.562Z,8.20
2023-04-07T04:39:04.599Z,8.20
2023-04-07T04:41:33.536Z,8.20
2023-04-07T04:44:00.256Z,8.10
2023-04-07T04:46:29.235Z,8.10
2023-04-07T04:48:58.649Z,8.10
2023-04-07T04:51:26.216Z,8.20
2023-04-07T04:56:21.297Z,8.10
2023-04-07T04:58:47.958Z,8.10
2023-04-07T05:01:15.172Z,8.10
2023-04-07T05:03:44.117Z,8.10
2023-04-07T05:06:11.098Z,8.10
2023-04-07T05:13:32.441Z,8.10
2023-04-07T05:15:59.090Z,8.10
2023-04-07T05:18:26.218Z,8.10
2023-04-07T05:20:52.906Z,8.10
2023-04-07T05:23:19.654Z,8.10
2023-04-07T05:25:46.427Z,8.10
2023-04-07T05:28:13.179Z,8.10
2023-04-07T05:30:39.964Z,8.10
2023-04-07T05:33:11.438Z,8.30
2023-04-07T05:35:42.887Z,8.10
2023-04-07T05:38:10.596Z,8.20
2023-04-07T05:40:39.957Z,8.10
2023-04-07T05:43:06.627Z,8.20
2023-04-07T05:48:02.924Z,8.30
2023-04-07T05:52:56.779Z,8.40
2023-04-07T05:55:25.941Z,8.40
2023-04-07T05:57:52.734Z,8.50
2023-04-07T06:00:21.901Z,8.50
2023-04-07T06:02:48.943Z,8.70
2023-04-07T06:05:16.251Z,8.70
2023-04-07T06:07:42.982Z,8.70
2023-04-07T06:10:09.896Z,8.80
2023-04-07T06:12:36.579Z,9.00
2023-04-07T06:15:06.050Z,9.70
2023-04-07T06:17:32.890Z,8.90
2023-04-07T06:19:59.572Z,9.00
2023-04-07T06:22:28.634Z,9.10
2023-04-07T06:24:55.614Z,9.20
2023-04-07T06:27:24.491Z,9.20
2023-04-07T06:29:53.324Z,9.30
2023-04-07T06:32:22.404Z,9.40
2023-04-07T06:37:16.975Z,9.50
2023-04-07T06:39:44.341Z,9.90
2023-04-07T06:42:11.060Z,9.80
2023-04-07T06:44:40.250Z,9.80
2023-04-07T06:47:07.371Z,9.90
2023-04-07T06:54:33.350Z,10.10
2023-04-07T06:57:04.502Z,10.10
2023-04-07T06:59:31.124Z,10.10
2023-04-07T07:01:57.846Z,10.20
2023-04-07T07:04:24.886Z,10.20
2023-04-07T07:09:18.786Z,10.30
2023-04-07T07:11:46.090Z,10.40
2023-04-07T07:16:42.433Z,10.70
2023-04-07T07:21:36.886Z,11.00
2023-04-07T07:24:03.686Z,11.20
2023-04-07T07:26:30.309Z,11.40
2023-04-07T07:31:28.760Z,11.90
2023-04-07T07:36:26.700Z,12.40
2023-04-07T07:41:21.123Z,12.90
2023-04-07T07:43:48.219Z,13.00
2023-04-07T07:46:15.520Z,14.20
2023-04-07T07:48:42.303Z,15.90
2023-04-07T07:56:03.278Z,18.00
2023-04-07T07:58:29.959Z,18.20
2023-04-07T08:00:59.078Z,18.40
2023-04-07T08:03:26.125Z,18.50
2023-04-07T08:05:52.927Z,18.70
2023-04-07T08:08:19.648Z,19.20
2023-04-07T08:10:49.117Z,19.50
2023-04-07T08:13:17.983Z,19.80
2023-04-07T08:15:44.667Z,20.00
2023-04-07T08:18:11.738Z,20.20
2023-04-07T08:20:38.481Z,20.40
2023-04-07T08:23:05.356Z,20.50
2023-04-07T08:25:32.112Z,20.60
2023-04-07T08:27:58.837Z,20.90
2023-04-07T08:30:30.371Z,21.10
2023-04-07T08:32:57.406Z,21.30
2023-04-07T08:35:24.164Z,21.50
2023-04-07T08:37:51.007Z,21.50
2023-04-07T08:40:17.745Z,21.50
2023-04-07T08:42:49.078Z,21.50
2023-04-07T08:45:19.507Z,21.50
2023-04-07T08:47:48.105Z,21.50
2023-04-07T08:50:19.728Z,21.40
2023-04-07T08:55:13.865Z,21.40
2023-04-07T08:57:42.181Z,21.20
2023-04-07T09:00:10.140Z,21.30
2023-04-07T09:02:43.547Z,20.90
2023-04-07T09:05:11.481Z,20.80
2023-04-07T09:07:40.287Z,20.50
2023-04-07T09:10:07.816Z,19.90
2023-04-07T09:12:34.728Z,19.40
2023-04-07T09:15:04.330Z,18.80
2023-04-07T09:17:31.045Z,18.40
2023-04-07T09:19:59.543Z,18.00
2023-04-07T09:22:36.331Z,17.70
2023-04-07T09:25:19.117Z,17.60
2023-04-07T09:30:29.733Z,17.60
2023-04-07T09:32:57.833Z,17.60
2023-04-07T09:35:24.891Z,17.60
2023-04-07T09:38:06.312Z,17.50
2023-04-07T09:43:02.051Z,17.70
2023-04-07T09:45:35.826Z,17.70
2023-04-07T09:48:21.919Z,18.00
2023-04-07T09:53:23.173Z,17.90
2023-04-07T09:55:50.644Z,17.90
2023-04-07T09:58:18.640Z,17.80
2023-04-07T10:00:45.793Z,17.70
2023-04-07T10:03:13.439Z,17.70
2023-04-07T10:05:43.614Z,17.70
2023-04-07T10:08:10.397Z,17.70
2023-04-07T10:10:41.709Z,17.70
2023-04-07T10:15:39.025Z,17.90
2023-04-07T10:18:12.202Z,18.00
2023-04-07T10:20:45.674Z,18.10
2023-04-07T10:23:26.324Z,18.20
2023-04-07T10:25:58.376Z,18.50
2023-04-07T10:28:27.910Z,18.70
2023-04-07T10:30:55.456Z,18.90
2023-04-07T10:33:49.524Z,19.00
2023-04-07T10:36:20.514Z,19.10
2023-04-07T10:39:08.958Z,19.30
2023-04-07T10:41:36.725Z,19.50
2023-04-07T10:44:08.368Z,19.50
2023-04-07T10:46:48.320Z,19.60
2023-04-07T10:49:19.144Z,19.70
2023-04-07T10:52:11.987Z,19.70
2023-04-07T10:54:42.735Z,19.90
2023-04-07T10:57:11.798Z,19.80
2023-04-07T10:59:41.009Z,19.90
2023-04-07T11:02:14.106Z,20.10
2023-04-07T11:04:46.265Z,20.10
2023-04-07T11:07:14.900Z,20.40
2023-04-07T11:09:42.241Z,20.40
2023-04-07T11:14:40.293Z,20.50
2023-04-07T11:17:15.021Z,20.50
2023-04-07T11:19:52.496Z,20.50
2023-04-07T11:24:49.513Z,20.60
2023-04-07T11:27:16.726Z,20.60
2023-04-07T11:29:45.645Z,20.70
2023-04-07T11:32:13.164Z,20.70
2023-04-07T11:34:42.810Z,20.70
2023-04-07T11:37:27.173Z,20.80
2023-04-07T11:39:58.406Z,20.80
2023-04-07T11:42:38.408Z,20.70
2023-04-07T11:45:08.561Z,20.70
2023-04-07T11:47:39.798Z,20.40
2023-04-07T11:50:07.648Z,20.30
2023-04-07T11:52:48.465Z,20.20
2023-04-07T11:55:23.607Z,20.00
2023-04-07T11:57:53.680Z,19.90
2023-04-07T12:00:21.014Z,19.70
2023-04-07T12:02:47.981Z,19.90
2023-04-07T12:05:14.917Z,19.90
2023-04-07T12:07:53.697Z,20.00
2023-04-07T12:10:21.651Z,20.10
2023-04-07T12:15:16.952Z,20.10
2023-04-07T12:17:50.708Z,20.00
2023-04-07T12:20:17.664Z,20.00
2023-04-07T12:22:47.251Z,19.90
2023-04-07T12:25:16.418Z,19.80
2023-04-07T12:27:43.915Z,19.60
2023-04-07T12:30:14.487Z,19.60
2023-04-07T12:32:41.167Z,19.70
2023-04-07T12:35:08.102Z,19.70
2023-04-07T12:37:34.823Z,19.80
2023-04-07T12:40:01.496Z,19.80
2023-04-07T12:42:30.793Z,19.80
2023-04-07T12:44:57.513Z,19.80
2023-04-07T12:47:27.208Z,19.70
2023-04-07T12:52:23.483Z,19.30
2023-04-07T12:54:50.218Z,19.20
2023-04-07T12:57:19.737Z,19.00
2023-04-07T12:59:51.778Z,18.90
2023-04-07T13:02:21.194Z,18.70
2023-04-07T13:04:50.264Z,18.60
2023-04-07T13:07:17.088Z,18.60
2023-04-07T13:09:43.780Z,18.30
2023-04-07T13:12:12.982Z,18.10
2023-04-07T13:14:52.813Z,17.80
2023-04-07T13:19:54.323Z,17.60
2023-04-07T13:22:24.557Z,17.50
2023-04-07T13:24:51.788Z,17.30
2023-04-07T13:27:18.489Z,17.20
2023-04-07T13:29:45.175Z,17.00
2023-04-07T13:34:43.729Z,16.90
2023-04-07T13:39:40.058Z,17.10
2023-04-07T13:44:37.076Z,17.40
2023-04-07T13:47:03.952Z,17.50
2023-04-07T13:49:30.820Z,17.60
2023-04-07T13:51:59.774Z,17.60
2023-04-07T13:54:26.594Z,17.60
2023-04-07T13:56:53.901Z,17.60
2023-04-07T13:59:20.636Z,17.60
2023-04-07T14:01:47.451Z,17.60
2023-04-07T14:04:14.360Z,17.50
2023-04-07T14:06:41.875Z,17.60
2023-04-07T14:11:46.283Z,17.60
2023-04-07T14:14:13.005Z,17.80
2023-04-07T14:16:39.724Z,18.00
2023-04-07T14:19:07.106Z,18.20
2023-04-07T14:21:33.748Z,18.30
2023-04-07T14:24:00.436Z,18.40
2023-04-07T14:26:31.841Z,18.40
2023-04-07T14:29:00.960Z,18.40
2023-04-07T14:31:27.662Z,18.30
2023-04-07T14:33:55.472Z,18.30
2023-04-07T14:36:22.291Z,18.30
2023-04-07T14:38:51.557Z,18.20
2023-04-07T14:41:18.262Z,18.10
2023-04-07T14:43:45.009Z,18.10
2023-04-07T14:46:12.563Z,18.00
2023-04-07T14:48:39.302Z,17.90
2023-04-07T14:51:12.859Z,17.90
2023-04-07T14:53:42.053Z,17.90
2023-04-07T14:56:08.776Z,17.90
2023-04-07T14:58:37.412Z,17.80
2023-04-07T15:01:07.456Z,17.80
2023-04-07T15:03:35.120Z,17.80
2023-04-07T15:06:07.055Z,17.70
2023-04-07T15:08:36.247Z,17.70
2023-04-07T15:11:09.413Z,17.60
2023-04-07T15:13:36.821Z,17.60
2023-04-07T15:16:11.429Z,17.50
2023-04-07T15:18:40.991Z,17.40
2023-04-07T15:21:11.337Z,17.20
2023-04-07T15:23:38.789Z,17.00
2023-04-07T15:26:06.202Z,16.90
2023-04-07T15:28:32.962Z,16.80
2023-04-07T15:31:01.005Z,16.50
2023-04-07T15:33:30.234Z,16.40
2023-04-07T15:35:57.164Z,16.20
2023-04-07T15:38:23.843Z,16.10
2023-04-07T15:40:52.893Z,16.00
2023-04-07T15:43:19.600Z,16.90
2023-04-07T15:45:47.318Z,15.80
2023-04-07T15:48:14.505Z,15.70
2023-04-07T15:50:43.413Z,15.70
2023-04-07T15:53:10.320Z,15.50
2023-04-07T15:55:39.350Z,15.40
2023-04-07T15:58:08.105Z,15.40
2023-04-07T16:00:35.779Z,15.80
2023-04-07T16:03:03.135Z,15.60
2023-04-07T16:05:32.318Z,15.20
2023-04-07T16:07:59.033Z,15.10
2023-04-07T16:10:30.720Z,15.30
2023-04-07T16:12:57.460Z,14.80
2023-04-07T16:15:38.773Z,14.70
2023-04-07T16:18:08.329Z,14.70
2023-04-07T16:20:35.232Z,14.70
2023-04-07T16:23:04.304Z,14.70
2023-04-07T16:25:33.292Z,14.60
2023-04-07T16:28:00.046Z,14.70
2023-04-07T16:30:29.250Z,15.00
2023-04-07T16:32:56.019Z,14.80
2023-04-07T16:35:22.922Z,14.80
2023-04-07T16:37:50.324Z,14.80
2023-04-07T16:40:19.161Z,14.80
2023-04-07T16:42:47.121Z,14.70
2023-04-07T16:45:13.893Z,14.70
2023-04-07T16:47:44.183Z,14.70
2023-04-07T16:50:13.512Z,14.70
2023-04-07T16:55:07.849Z,14.60
2023-04-07T16:57:34.549Z,14.60
2023-04-07T17:00:04.042Z,14.70
2023-04-07T17:02:30.802Z,15.10
2023-04-07T17:04:57.873Z,15.20
2023-04-07T17:07:24.513Z,15.60
2023-04-07T17:09:51.172Z,16.20
2023-04-07T17:12:17.875Z,16.00
2023-04-07T17:19:43.349Z,16.70
2023-04-07T17:22:12.368Z,16.90
2023-04-07T17:24:39.317Z,17.10
2023-04-07T17:27:06.121Z,17.20
2023-04-07T17:29:33.634Z,17.30
2023-04-07T17:32:00.443Z,16.90
2023-04-07T17:34:27.839Z,17.00
2023-04-07T17:36:54.876Z,17.50
2023-04-07T17:39:24.065Z,17.20
2023-04-07T17:41:52.903Z,17.30
2023-04-07T17:44:19.591Z,16.80
2023-04-07T17:46:46.586Z,16.40
2023-04-07T17:49:13.410Z,16.10
2023-04-07T17:51:42.515Z,15.70
2023-04-07T17:54:09.204Z,15.20
2023-04-07T17:56:35.949Z,15.00
2023-04-07T17:59:02.681Z,14.90
2023-04-07T18:01:32.218Z,14.60
2023-04-07T18:04:02.202Z,14.50
2023-04-07T18:09:00.753Z,14.30
2023-04-07T18:11:27.491Z,14.10
2023-04-07T18:16:22.435Z,14.00
2023-04-07T18:18:49.499Z,13.90
2023-04-07T18:21:16.298Z,13.70
2023-04-07T18:23:45.641Z,13.60
2023-04-07T18:28:39.660Z,13.50
2023-04-07T18:31:10.988Z,13.60
2023-04-07T18:36:08.850Z,13.30
2023-04-07T18:38:36.401Z,13.20
2023-04-07T18:41:05.355Z,13.10
2023-04-07T18:43:32.055Z,13.10
2023-04-07T18:45:59.033Z,13.10
2023-04-07T18:48:26.363Z,14.20
2023-04-07T18:50:54.841Z,13.00
2023-04-07T18:53:23.662Z,12.90
2023-04-07T18:55:51.244Z,12.90
2023-04-07T19:03:17.626Z,14.40
2023-04-07T19:05:47.773Z,14.10
2023-04-07T19:08:15.801Z,13.70
2023-04-07T19:10:48.097Z,13.40
2023-04-07T19:13:17.833Z,13.30
2023-04-07T19:15:46.207Z,13.10
2023-04-07T19:18:15.862Z,13.00
2023-04-07T19:20:42.602Z,12.90
2023-04-07T19:23:09.347Z,12.90
2023-04-07T19:25:36.208Z,12.80
2023-04-07T19:28:03.342Z,12.80
2023-04-07T19:30:30.179Z,12.80
2023-04-07T19:32:56.874Z,13.60
2023-04-07T19:35:23.604Z,13.00
2023-04-07T19:37:51.892Z,12.50
2023-04-07T19:40:18.604Z,12.40
2023-04-07T19:42:45.743Z,12.40
2023-04-07T19:45:12.761Z,12.40
2023-04-07T19:47:42.417Z,12.90
2023-04-07T19:50:11.389Z,13.20
2023-04-07T19:55:06.133Z,13.00
2023-04-07T19:57:33.337Z,12.80
2023-04-07T20:00:00.019Z,12.50
2023-04-07T20:02:27.987Z,14.80
2023-04-07T20:04:54.815Z,12.30
2023-04-07T20:07:22.684Z,12.30
2023-04-07T20:09:53.852Z,12.20
2023-04-07T20:12:21.112Z,12.30
2023-04-07T20:14:52.300Z,12.40
2023-04-07T20:17:21.528Z,12.20
2023-04-07T20:19:50.602Z,12.00
2023-04-07T20:22:17.413Z,12.00
2023-04-07T20:24:49.143Z,12.00
2023-04-07T20:27:15.899Z,12.00
2023-04-07T20:29:45.335Z,11.80
2023-04-07T20:32:12.156Z,11.90
2023-04-07T20:34:42.825Z,11.80
2023-04-07T20:37:11.873Z,11.80
2023-04-07T20:39:41.098Z,11.80
2023-04-07T20:42:07.814Z,11.80
2023-04-07T20:44:37.011Z,11.70
2023-04-07T20:47:13.465Z,11.50
2023-04-07T20:49:43.771Z,11.70
2023-04-07T20:52:12.992Z,11.60
2023-04-07T20:54:41.643Z,11.70
2023-04-07T20:57:11.110Z,11.50
2023-04-07T20:59:37.811Z,11.60
2023-04-07T21:02:05.324Z,11.60
2023-04-07T21:04:32.524Z,11.70
2023-04-07T21:07:01.406Z,11.50
2023-04-07T21:09:28.069Z,11.40
2023-04-07T21:11:54.902Z,11.50
2023-04-07T21:14:21.607Z,11.60
2023-04-07T21:19:15.818Z,11.40
2023-04-07T21:21:44.915Z,12.00
2023-04-07T21:24:11.558Z,11.40
2023-04-07T21:26:40.472Z,11.40
2023-04-07T21:29:09.766Z,11.30
2023-04-07T21:31:36.558Z,11.30
2023-04-07T21:34:03.608Z,11.20
2023-04-07T21:36:31.969Z,11.20
2023-04-07T21:38:59.033Z,11.30
2023-04-07T21:41:25.966Z,11.20
2023-04-07T21:43:52.678Z,11.20
2023-04-07T21:46:19.793Z,11.20
2023-04-07T21:48:49.160Z,11.20
2023-04-07T21:51:16.112Z,11.20
2023-04-07T21:53:45.090Z,11.10
2023-04-07T21:56:14.367Z,11.10
2023-04-07T21:58:41.913Z,11.70
2023-04-07T22:01:08.714Z,11.00
2023-04-07T22:03:35.662Z,11.30
2023-04-07T22:06:04.816Z,10.90
2023-04-07T22:08:33.952Z,10.90
2023-04-07T22:11:00.699Z,11.00
2023-04-07T22:13:29.724Z,11.10
2023-04-07T22:15:56.557Z,11.00
2023-04-07T22:18:27.919Z,11.00
2023-04-07T22:20:54.884Z,11.00
2023-04-07T22:23:21.556Z,11.80
2023-04-07T22:25:49.215Z,10.90
2023-04-07T22:28:15.978Z,10.70
2023-04-07T22:33:10.661Z,10.90
2023-04-07T22:35:37.845Z,11.00
2023-04-07T22:38:04.720Z,10.60
2023-04-07T22:40:31.563Z,10.90
2023-04-07T22:43:01.608Z,10.90
2023-04-07T22:45:29.136Z,10.90
2023-04-07T22:47:58.281Z,10.90
2023-04-07T22:50:24.958Z,10.80
2023-04-07T22:52:53.840Z,10.80
2023-04-07T22:55:23.097Z,11.00
2023-04-07T22:57:49.851Z,10.80
2023-04-07T23:00:19.088Z,11.10
2023-04-07T23:02:48.346Z,10.80
2023-04-07T23:07:45.249Z,10.70
2023-04-07T23:10:12.160Z,10.70
2023-04-07T23:12:39.104Z,10.70
2023-04-07T23:15:09.112Z,11.10
2023-04-07T23:17:38.279Z,10.70
2023-04-07T23:20:08.190Z,10.70
2023-04-07T23:22:35.174Z,10.70
2023-04-07T23:27:29.877Z,10.70
2023-04-07T23:29:56.617Z,10.60
2023-04-07T23:34:57.485Z,10.70
2023-04-07T23:37:26.680Z,10.70
2023-04-07T23:39:53.375Z,10.60
2023-04-07T23:42:22.266Z,10.80
2023-04-07T23:44:51.135Z,11.20
2023-04-07T23:47:20.130Z,10.60
2023-04-07T23:49:49.096Z,10.60
2023-04-07T23:52:21.354Z,10.60
2023-04-07T23:54:48.090Z,10.60
2023-04-07T23:57:14.783Z,10.50
2023-04-07T23:59:41.486Z,10.90
